Aviation Digital Data Service (ADDS)

Output produced by METARs form (1807 UTC 19 October 2017)
found at http://www.aviationweather.gov/adds/metars/
 
ELLX 191750Z 17008KT CAVOK 17/10 Q1011 NOSIG
TAF ELLX 191700Z 1918/2024 16005KT CAVOK 
     BECMG 2005/2007 BKN010 
     PROB40 
     TEMPO 2005/2007 SCT008TCU 
     TEMPO 2005/2009 3000 RA BR BKN006 
     TEMPO 2008/2016 23015G25KT 
     BECMG 2009/2011 FEW020